sensor_id;sensor_type;location;lat;lon;timestamp;P1;durP1;ratioP1;P2;durP2;ratioP2
27839;SDS011;15207;42.182;24.308;2022-10-31T00:02:19;15.53;;;4.00;;
27839;SDS011;15207;42.182;24.308;2022-10-31T00:04:45;8.55;;;3.45;;
27839;SDS011;15207;42.182;24.308;2022-10-31T00:07:10;6.60;;;3.70;;
27839;SDS011;15207;42.182;24.308;2022-10-31T00:09:36;7.00;;;3.60;;
27839;SDS011;15207;42.182;24.308;2022-10-31T00:12:01;8.50;;;3.70;;
27839;SDS011;15207;42.182;24.308;2022-10-31T00:14:27;9.00;;;3.50;;
27839;SDS011;15207;42.182;24.308;2022-10-31T00:16:53;7.38;;;3.00;;
27839;SDS011;15207;42.182;24.308;2022-10-31T00:19:18;10.70;;;3.80;;
27839;SDS011;15207;42.182;24.308;2022-10-31T00:21:44;5.60;;;3.10;;
27839;SDS011;15207;42.182;24.308;2022-10-31T00:24:10;6.90;;;3.20;;
27839;SDS011;15207;42.182;24.308;2022-10-31T00:26:35;7.82;;;3.58;;
27839;SDS011;15207;42.182;24.308;2022-10-31T00:29:01;7.03;;;3.17;;
27839;SDS011;15207;42.182;24.308;2022-10-31T00:31:27;9.75;;;3.55;;
27839;SDS011;15207;42.182;24.308;2022-10-31T00:33:53;11.80;;;3.55;;
27839;SDS011;15207;42.182;24.308;2022-10-31T00:36:19;14.60;;;3.30;;
27839;SDS011;15207;42.182;24.308;2022-10-31T00:38:46;7.30;;;3.20;;
27839;SDS011;15207;42.182;24.308;2022-10-31T00:41:13;10.60;;;3.40;;
27839;SDS011;15207;42.182;24.308;2022-10-31T00:43:41;14.65;;;3.45;;
27839;SDS011;15207;42.182;24.308;2022-10-31T00:46:07;10.30;;;3.50;;
27839;SDS011;15207;42.182;24.308;2022-10-31T00:48:32;5.10;;;2.85;;
27839;SDS011;15207;42.182;24.308;2022-10-31T00:50:58;9.48;;;3.35;;
27839;SDS011;15207;42.182;24.308;2022-10-31T00:53:24;12.00;;;3.40;;
27839;SDS011;15207;42.182;24.308;2022-10-31T00:55:50;10.60;;;3.30;;
27839;SDS011;15207;42.182;24.308;2022-10-31T00:58:15;13.60;;;3.80;;
27839;SDS011;15207;42.182;24.308;2022-10-31T01:00:41;11.25;;;3.85;;
27839;SDS011;15207;42.182;24.308;2022-10-31T01:03:07;9.90;;;3.40;;
27839;SDS011;15207;42.182;24.308;2022-10-31T01:05:33;9.05;;;3.65;;
27839;SDS011;15207;42.182;24.308;2022-10-31T01:07:58;15.23;;;3.47;;
27839;SDS011;15207;42.182;24.308;2022-10-31T01:10:24;6.55;;;3.10;;
27839;SDS011;15207;42.182;24.308;2022-10-31T01:12:50;11.40;;;3.70;;
27839;SDS011;15207;42.182;24.308;2022-10-31T01:17:43;11.70;;;3.50;;
27839;SDS011;15207;42.182;24.308;2022-10-31T01:20:09;8.98;;;3.47;;
27839;SDS011;15207;42.182;24.308;2022-10-31T01:22:36;8.48;;;3.50;;
27839;SDS011;15207;42.182;24.308;2022-10-31T01:25:02;12.00;;;3.70;;
27839;SDS011;15207;42.182;24.308;2022-10-31T01:27:27;6.40;;;3.50;;
27839;SDS011;15207;42.182;24.308;2022-10-31T01:29:53;10.70;;;3.40;;
27839;SDS011;15207;42.182;24.308;2022-10-31T01:32:19;6.20;;;3.45;;
27839;SDS011;15207;42.182;24.308;2022-10-31T01:34:44;9.40;;;3.30;;
27839;SDS011;15207;42.182;24.308;2022-10-31T01:37:10;7.85;;;3.40;;
27839;SDS011;15207;42.182;24.308;2022-10-31T01:39:36;9.00;;;3.37;;
27839;SDS011;15207;42.182;24.308;2022-10-31T01:42:01;10.70;;;4.00;;
27839;SDS011;15207;42.182;24.308;2022-10-31T01:49:40;8.83;;;3.10;;
27839;SDS011;15207;42.182;24.308;2022-10-31T01:54:48;10.40;;;3.10;;
27839;SDS011;15207;42.182;24.308;2022-10-31T01:57:26;7.50;;;3.70;;
27839;SDS011;15207;42.182;24.308;2022-10-31T02:02:22;9.05;;;3.05;;
27839;SDS011;15207;42.182;24.308;2022-10-31T02:04:49;5.60;;;2.72;;
27839;SDS011;15207;42.182;24.308;2022-10-31T02:07:18;5.47;;;2.80;;
27839;SDS011;15207;42.182;24.308;2022-10-31T02:09:50;7.60;;;3.17;;
27839;SDS011;15207;42.182;24.308;2022-10-31T02:12:18;6.22;;;3.10;;
27839;SDS011;15207;42.182;24.308;2022-10-31T02:14:45;5.75;;;3.05;;
27839;SDS011;15207;42.182;24.308;2022-10-31T02:17:11;7.22;;;2.92;;
27839;SDS011;15207;42.182;24.308;2022-10-31T02:22:24;9.25;;;3.10;;
27839;SDS011;15207;42.182;24.308;2022-10-31T02:27:52;12.75;;;3.00;;
27839;SDS011;15207;42.182;24.308;2022-10-31T02:30:29;7.93;;;2.90;;
27839;SDS011;15207;42.182;24.308;2022-10-31T02:43:27;8.15;;;3.38;;
27839;SDS011;15207;42.182;24.308;2022-10-31T02:46:16;6.95;;;2.90;;
27839;SDS011;15207;42.182;24.308;2022-10-31T02:48:50;12.90;;;3.45;;
27839;SDS011;15207;42.182;24.308;2022-10-31T02:51:19;8.35;;;3.40;;
27839;SDS011;15207;42.182;24.308;2022-10-31T02:53:46;9.25;;;3.15;;
27839;SDS011;15207;42.182;24.308;2022-10-31T02:56:12;13.55;;;3.20;;
27839;SDS011;15207;42.182;24.308;2022-10-31T03:01:26;12.20;;;3.70;;
27839;SDS011;15207;42.182;24.308;2022-10-31T03:10:10;11.93;;;3.50;;
27839;SDS011;15207;42.182;24.308;2022-10-31T03:15:32;8.40;;;2.92;;
27839;SDS011;15207;42.182;24.308;2022-10-31T03:20:34;10.30;;;3.35;;
27839;SDS011;15207;42.182;24.308;2022-10-31T03:23:05;7.47;;;3.15;;
27839;SDS011;15207;42.182;24.308;2022-10-31T03:25:34;7.90;;;2.70;;
27839;SDS011;15207;42.182;24.308;2022-10-31T03:28:02;8.80;;;2.90;;
27839;SDS011;15207;42.182;24.308;2022-10-31T03:30:29;11.00;;;2.90;;
27839;SDS011;15207;42.182;24.308;2022-10-31T03:35:24;7.10;;;3.00;;
27839;SDS011;15207;42.182;24.308;2022-10-31T03:37:53;8.02;;;2.63;;
27839;SDS011;15207;42.182;24.308;2022-10-31T03:40:20;13.55;;;3.17;;
27839;SDS011;15207;42.182;24.308;2022-10-31T03:42:51;12.68;;;3.20;;
27839;SDS011;15207;42.182;24.308;2022-10-31T03:45:27;6.70;;;2.90;;
27839;SDS011;15207;42.182;24.308;2022-10-31T03:47:56;5.73;;;2.53;;
27839;SDS011;15207;42.182;24.308;2022-10-31T03:55:34;9.38;;;3.20;;
27839;SDS011;15207;42.182;24.308;2022-10-31T03:58:03;13.90;;;3.20;;
27839;SDS011;15207;42.182;24.308;2022-10-31T04:00:33;6.47;;;3.10;;
27839;SDS011;15207;42.182;24.308;2022-10-31T04:03:02;10.25;;;3.05;;
27839;SDS011;15207;42.182;24.308;2022-10-31T04:05:31;10.45;;;3.20;;
27839;SDS011;15207;42.182;24.308;2022-10-31T04:07:57;10.80;;;3.15;;
27839;SDS011;15207;42.182;24.308;2022-10-31T04:10:26;16.88;;;3.25;;
27839;SDS011;15207;42.182;24.308;2022-10-31T04:12:59;11.95;;;3.05;;
27839;SDS011;15207;42.182;24.308;2022-10-31T04:15:30;12.00;;;3.60;;
27839;SDS011;15207;42.182;24.308;2022-10-31T04:17:58;9.55;;;3.35;;
27839;SDS011;15207;42.182;24.308;2022-10-31T04:23:01;5.30;;;2.80;;
27839;SDS011;15207;42.182;24.308;2022-10-31T04:30:18;9.10;;;3.10;;
27839;SDS011;15207;42.182;24.308;2022-10-31T04:32:44;8.70;;;3.30;;
27839;SDS011;15207;42.182;24.308;2022-10-31T04:35:09;9.20;;;2.90;;
27839;SDS011;15207;42.182;24.308;2022-10-31T04:40:00;11.77;;;3.13;;
27839;SDS011;15207;42.182;24.308;2022-10-31T04:42:28;11.15;;;3.42;;
27839;SDS011;15207;42.182;24.308;2022-10-31T04:44:55;9.60;;;3.53;;
27839;SDS011;15207;42.182;24.308;2022-10-31T04:52:11;9.95;;;3.55;;
27839;SDS011;15207;42.182;24.308;2022-10-31T04:54:37;11.43;;;3.53;;
27839;SDS011;15207;42.182;24.308;2022-10-31T05:01:53;12.55;;;3.80;;
27839;SDS011;15207;42.182;24.308;2022-10-31T05:04:18;10.60;;;3.95;;
27839;SDS011;15207;42.182;24.308;2022-10-31T05:06:45;10.60;;;3.60;;
27839;SDS011;15207;42.182;24.308;2022-10-31T05:14:02;7.65;;;3.70;;
27839;SDS011;15207;42.182;24.308;2022-10-31T05:16:27;10.93;;;3.60;;
27839;SDS011;15207;42.182;24.308;2022-10-31T05:18:53;12.10;;;3.65;;
27839;SDS011;15207;42.182;24.308;2022-10-31T05:21:19;15.38;;;4.43;;
27839;SDS011;15207;42.182;24.308;2022-10-31T05:23:44;15.02;;;3.85;;
27839;SDS011;15207;42.182;24.308;2022-10-31T05:26:10;9.68;;;3.53;;
27839;SDS011;15207;42.182;24.308;2022-10-31T05:28:36;14.15;;;3.72;;
27839;SDS011;15207;42.182;24.308;2022-10-31T05:38:17;11.70;;;3.80;;
27839;SDS011;15207;42.182;24.308;2022-10-31T05:40:43;14.57;;;3.78;;
27839;SDS011;15207;42.182;24.308;2022-10-31T05:43:08;301.70;;;21.95;;
27839;SDS011;15207;42.182;24.308;2022-10-31T05:45:34;68.70;;;6.50;;
27839;SDS011;15207;42.182;24.308;2022-10-31T05:48:00;15.20;;;3.60;;
27839;SDS011;15207;42.182;24.308;2022-10-31T05:50:28;15.00;;;4.10;;
27839;SDS011;15207;42.182;24.308;2022-10-31T05:52:55;17.42;;;3.58;;
27839;SDS011;15207;42.182;24.308;2022-10-31T05:55:25;19.90;;;3.70;;
27839;SDS011;15207;42.182;24.308;2022-10-31T05:57:52;303.70;;;20.55;;
27839;SDS011;15207;42.182;24.308;2022-10-31T06:00:18;41.85;;;5.85;;
27839;SDS011;15207;42.182;24.308;2022-10-31T06:02:45;13.63;;;4.20;;
27839;SDS011;15207;42.182;24.308;2022-10-31T06:05:11;225.45;;;15.45;;
27839;SDS011;15207;42.182;24.308;2022-10-31T06:07:37;155.25;;;11.07;;
27839;SDS011;15207;42.182;24.308;2022-10-31T06:14:55;13.80;;;4.15;;
27839;SDS011;15207;42.182;24.308;2022-10-31T06:17:20;39.00;;;5.40;;
27839;SDS011;15207;42.182;24.308;2022-10-31T06:19:46;18.60;;;4.85;;
27839;SDS011;15207;42.182;24.308;2022-10-31T06:22:12;46.17;;;5.25;;
27839;SDS011;15207;42.182;24.308;2022-10-31T06:24:37;18.73;;;5.22;;
27839;SDS011;15207;42.182;24.308;2022-10-31T06:27:03;26.58;;;5.55;;
27839;SDS011;15207;42.182;24.308;2022-10-31T06:29:29;20.33;;;6.97;;
27839;SDS011;15207;42.182;24.308;2022-10-31T06:31:55;20.73;;;6.93;;
27839;SDS011;15207;42.182;24.308;2022-10-31T06:34:20;13.50;;;5.40;;
27839;SDS011;15207;42.182;24.308;2022-10-31T06:36:46;16.05;;;4.15;;
27839;SDS011;15207;42.182;24.308;2022-10-31T06:39:14;14.40;;;4.00;;
27839;SDS011;15207;42.182;24.308;2022-10-31T06:41:40;10.20;;;4.20;;
27839;SDS011;15207;42.182;24.308;2022-10-31T06:44:06;18.02;;;4.10;;
27839;SDS011;15207;42.182;24.308;2022-10-31T06:46:32;10.35;;;3.70;;
27839;SDS011;15207;42.182;24.308;2022-10-31T06:48:59;11.50;;;3.80;;
27839;SDS011;15207;42.182;24.308;2022-10-31T06:51:25;10.50;;;3.70;;
27839;SDS011;15207;42.182;24.308;2022-10-31T06:53:51;10.25;;;3.90;;
27839;SDS011;15207;42.182;24.308;2022-10-31T06:58:42;15.80;;;5.25;;
27839;SDS011;15207;42.182;24.308;2022-10-31T07:03:33;14.55;;;4.20;;
27839;SDS011;15207;42.182;24.308;2022-10-31T07:05:59;12.50;;;3.80;;
27839;SDS011;15207;42.182;24.308;2022-10-31T07:08:25;13.60;;;3.40;;
27839;SDS011;15207;42.182;24.308;2022-10-31T07:10:51;15.98;;;3.30;;
27839;SDS011;15207;42.182;24.308;2022-10-31T07:15:48;12.80;;;3.55;;
27839;SDS011;15207;42.182;24.308;2022-10-31T07:18:14;12.33;;;3.13;;
27839;SDS011;15207;42.182;24.308;2022-10-31T07:20:39;15.32;;;3.75;;
27839;SDS011;15207;42.182;24.308;2022-10-31T07:23:05;14.85;;;3.05;;
27839;SDS011;15207;42.182;24.308;2022-10-31T07:25:30;11.50;;;3.60;;
27839;SDS011;15207;42.182;24.308;2022-10-31T07:27:56;13.00;;;3.30;;
27839;SDS011;15207;42.182;24.308;2022-10-31T07:32:48;12.20;;;2.80;;
27839;SDS011;15207;42.182;24.308;2022-10-31T07:35:21;7.45;;;3.10;;
27839;SDS011;15207;42.182;24.308;2022-10-31T07:37:49;13.00;;;3.00;;
27839;SDS011;15207;42.182;24.308;2022-10-31T07:40:15;16.90;;;3.25;;
27839;SDS011;15207;42.182;24.308;2022-10-31T07:42:42;8.93;;;2.67;;
27839;SDS011;15207;42.182;24.308;2022-10-31T07:45:09;11.00;;;3.50;;
27839;SDS011;15207;42.182;24.308;2022-10-31T07:47:55;10.00;;;2.80;;
27839;SDS011;15207;42.182;24.308;2022-10-31T07:50:22;11.70;;;2.95;;
27839;SDS011;15207;42.182;24.308;2022-10-31T07:52:57;19.10;;;4.50;;
27839;SDS011;15207;42.182;24.308;2022-10-31T07:57:57;7.30;;;3.00;;
27839;SDS011;15207;42.182;24.308;2022-10-31T08:00:26;14.38;;;4.72;;
27839;SDS011;15207;42.182;24.308;2022-10-31T08:02:57;16.17;;;4.15;;
27839;SDS011;15207;42.182;24.308;2022-10-31T08:05:26;7.20;;;3.20;;
27839;SDS011;15207;42.182;24.308;2022-10-31T08:07:52;10.00;;;2.60;;
27839;SDS011;15207;42.182;24.308;2022-10-31T08:10:18;10.40;;;2.60;;
27839;SDS011;15207;42.182;24.308;2022-10-31T08:12:44;21.85;;;3.50;;
27839;SDS011;15207;42.182;24.308;2022-10-31T08:15:10;23.55;;;3.75;;
27839;SDS011;15207;42.182;24.308;2022-10-31T08:17:36;18.40;;;3.40;;
27839;SDS011;15207;42.182;24.308;2022-10-31T08:20:03;55.00;;;5.18;;
27839;SDS011;15207;42.182;24.308;2022-10-31T08:22:30;26.50;;;3.50;;
27839;SDS011;15207;42.182;24.308;2022-10-31T08:24:55;9.25;;;2.53;;
27839;SDS011;15207;42.182;24.308;2022-10-31T08:27:21;6.80;;;3.50;;
27839;SDS011;15207;42.182;24.308;2022-10-31T08:29:47;8.10;;;2.70;;
27839;SDS011;15207;42.182;24.308;2022-10-31T08:34:38;12.55;;;2.55;;
27839;SDS011;15207;42.182;24.308;2022-10-31T08:37:04;10.60;;;2.80;;
27839;SDS011;15207;42.182;24.308;2022-10-31T08:39:29;10.30;;;2.35;;
27839;SDS011;15207;42.182;24.308;2022-10-31T08:41:55;8.20;;;2.50;;
27839;SDS011;15207;42.182;24.308;2022-10-31T08:44:21;8.35;;;2.90;;
27839;SDS011;15207;42.182;24.308;2022-10-31T08:46:47;8.10;;;2.30;;
27839;SDS011;15207;42.182;24.308;2022-10-31T08:49:12;10.85;;;2.25;;
27839;SDS011;15207;42.182;24.308;2022-10-31T08:51:38;10.55;;;2.40;;
27839;SDS011;15207;42.182;24.308;2022-10-31T08:54:05;5.20;;;1.97;;
27839;SDS011;15207;42.182;24.308;2022-10-31T08:56:30;9.40;;;2.00;;
27839;SDS011;15207;42.182;24.308;2022-10-31T08:58:56;7.60;;;2.10;;
27839;SDS011;15207;42.182;24.308;2022-10-31T09:01:22;14.30;;;3.00;;
27839;SDS011;15207;42.182;24.308;2022-10-31T09:06:14;9.30;;;2.10;;
27839;SDS011;15207;42.182;24.308;2022-10-31T09:08:40;5.00;;;1.73;;
27839;SDS011;15207;42.182;24.308;2022-10-31T09:13:32;4.70;;;2.10;;
27839;SDS011;15207;42.182;24.308;2022-10-31T09:15:58;9.40;;;1.90;;
27839;SDS011;15207;42.182;24.308;2022-10-31T09:20:50;6.35;;;1.75;;
27839;SDS011;15207;42.182;24.308;2022-10-31T09:23:17;9.00;;;1.70;;
27839;SDS011;15207;42.182;24.308;2022-10-31T09:25:44;10.10;;;1.90;;
27839;SDS011;15207;42.182;24.308;2022-10-31T09:28:11;6.90;;;2.00;;
27839;SDS011;15207;42.182;24.308;2022-10-31T09:30:38;9.35;;;2.30;;
27839;SDS011;15207;42.182;24.308;2022-10-31T09:33:13;8.20;;;2.00;;
27839;SDS011;15207;42.182;24.308;2022-10-31T09:35:39;7.90;;;2.05;;
27839;SDS011;15207;42.182;24.308;2022-10-31T09:38:10;7.47;;;2.10;;
27839;SDS011;15207;42.182;24.308;2022-10-31T09:40:47;4.25;;;1.85;;
27839;SDS011;15207;42.182;24.308;2022-10-31T09:43:21;13.33;;;2.47;;
27839;SDS011;15207;42.182;24.308;2022-10-31T09:46:01;9.35;;;2.30;;
27839;SDS011;15207;42.182;24.308;2022-10-31T09:51:08;10.05;;;2.70;;
27839;SDS011;15207;42.182;24.308;2022-10-31T09:53:39;7.10;;;2.20;;
27839;SDS011;15207;42.182;24.308;2022-10-31T09:56:10;9.10;;;1.90;;
27839;SDS011;15207;42.182;24.308;2022-10-31T09:58:43;3.47;;;1.50;;
27839;SDS011;15207;42.182;24.308;2022-10-31T10:04:03;8.45;;;3.50;;
27839;SDS011;15207;42.182;24.308;2022-10-31T10:09:09;6.75;;;1.80;;
27839;SDS011;15207;42.182;24.308;2022-10-31T10:11:39;13.35;;;2.05;;
27839;SDS011;15207;42.182;24.308;2022-10-31T10:25:21;8.48;;;2.28;;
27839;SDS011;15207;42.182;24.308;2022-10-31T10:40:33;7.90;;;2.10;;
27839;SDS011;15207;42.182;24.308;2022-10-31T10:46:00;7.80;;;1.60;;
27839;SDS011;15207;42.182;24.308;2022-10-31T10:51:25;18.40;;;3.23;;
27839;SDS011;15207;42.182;24.308;2022-10-31T10:54:04;14.25;;;2.25;;
27839;SDS011;15207;42.182;24.308;2022-10-31T10:59:47;10.60;;;2.10;;
27839;SDS011;15207;42.182;24.308;2022-10-31T11:02:16;9.70;;;2.03;;
27839;SDS011;15207;42.182;24.308;2022-10-31T11:07:10;8.40;;;2.00;;
27839;SDS011;15207;42.182;24.308;2022-10-31T11:09:37;10.67;;;2.00;;
27839;SDS011;15207;42.182;24.308;2022-10-31T11:14:42;9.63;;;1.98;;
27839;SDS011;15207;42.182;24.308;2022-10-31T11:17:31;6.80;;;1.70;;
27839;SDS011;15207;42.182;24.308;2022-10-31T11:22:37;15.45;;;1.80;;
27839;SDS011;15207;42.182;24.308;2022-10-31T11:25:23;10.70;;;1.85;;
27839;SDS011;15207;42.182;24.308;2022-10-31T11:28:00;15.52;;;2.20;;
27839;SDS011;15207;42.182;24.308;2022-10-31T11:30:41;6.75;;;1.60;;
27839;SDS011;15207;42.182;24.308;2022-10-31T11:33:17;16.60;;;2.20;;
27839;SDS011;15207;42.182;24.308;2022-10-31T11:35:47;6.10;;;2.25;;
27839;SDS011;15207;42.182;24.308;2022-10-31T11:38:15;8.80;;;2.87;;
27839;SDS011;15207;42.182;24.308;2022-10-31T11:43:20;8.20;;;1.80;;
27839;SDS011;15207;42.182;24.308;2022-10-31T11:45:47;3.40;;;1.70;;
27839;SDS011;15207;42.182;24.308;2022-10-31T11:48:20;4.05;;;1.90;;
27839;SDS011;15207;42.182;24.308;2022-10-31T11:50:53;7.90;;;1.90;;
27839;SDS011;15207;42.182;24.308;2022-10-31T11:53:32;7.60;;;2.10;;
27839;SDS011;15207;42.182;24.308;2022-10-31T11:56:04;7.30;;;1.75;;
27839;SDS011;15207;42.182;24.308;2022-10-31T11:58:30;5.30;;;1.70;;
27839;SDS011;15207;42.182;24.308;2022-10-31T12:00:56;5.60;;;2.00;;
27839;SDS011;15207;42.182;24.308;2022-10-31T12:06:02;11.90;;;3.30;;
27839;SDS011;15207;42.182;24.308;2022-10-31T12:08:29;10.60;;;2.70;;
27839;SDS011;15207;42.182;24.308;2022-10-31T12:22:17;10.65;;;2.70;;
27839;SDS011;15207;42.182;24.308;2022-10-31T12:40:53;9.10;;;2.40;;
27839;SDS011;15207;42.182;24.308;2022-10-31T13:05:16;10.20;;;2.60;;
27839;SDS011;15207;42.182;24.308;2022-10-31T13:07:53;7.67;;;2.57;;
27839;SDS011;15207;42.182;24.308;2022-10-31T13:10:24;9.90;;;2.70;;
27839;SDS011;15207;42.182;24.308;2022-10-31T13:12:57;8.50;;;2.40;;
27839;SDS011;15207;42.182;24.308;2022-10-31T13:15:28;8.00;;;2.53;;
27839;SDS011;15207;42.182;24.308;2022-10-31T13:18:04;8.77;;;2.80;;
27839;SDS011;15207;42.182;24.308;2022-10-31T13:20:43;14.90;;;2.70;;
27839;SDS011;15207;42.182;24.308;2022-10-31T13:25:55;10.35;;;2.78;;
27839;SDS011;15207;42.182;24.308;2022-10-31T13:35:50;7.03;;;2.50;;
27839;SDS011;15207;42.182;24.308;2022-10-31T13:46:40;12.80;;;2.70;;
27839;SDS011;15207;42.182;24.308;2022-10-31T13:54:36;9.50;;;2.60;;
27839;SDS011;15207;42.182;24.308;2022-10-31T13:57:14;7.65;;;2.40;;
27839;SDS011;15207;42.182;24.308;2022-10-31T13:59:54;7.20;;;1.95;;
27839;SDS011;15207;42.182;24.308;2022-10-31T14:02:45;8.00;;;2.00;;
27839;SDS011;15207;42.182;24.308;2022-10-31T14:07:51;12.50;;;2.50;;
27839;SDS011;15207;42.182;24.308;2022-10-31T14:10:21;22.53;;;3.67;;
27839;SDS011;15207;42.182;24.308;2022-10-31T14:13:15;15.05;;;2.85;;
27839;SDS011;15207;42.182;24.308;2022-10-31T14:18:34;13.20;;;2.90;;
27839;SDS011;15207;42.182;24.308;2022-10-31T14:28:53;25.20;;;4.60;;
27839;SDS011;15207;42.182;24.308;2022-10-31T14:31:52;28.08;;;3.58;;
27839;SDS011;15207;42.182;24.308;2022-10-31T14:34:29;25.00;;;3.60;;
27839;SDS011;15207;42.182;24.308;2022-10-31T14:39:37;11.05;;;3.40;;
27839;SDS011;15207;42.182;24.308;2022-10-31T14:47:46;37.22;;;5.07;;
27839;SDS011;15207;42.182;24.308;2022-10-31T14:53:00;54.17;;;5.77;;
27839;SDS011;15207;42.182;24.308;2022-10-31T14:55:29;25.77;;;4.82;;
27839;SDS011;15207;42.182;24.308;2022-10-31T14:58:04;30.90;;;5.90;;
27839;SDS011;15207;42.182;24.308;2022-10-31T15:00:32;43.25;;;5.55;;
27839;SDS011;15207;42.182;24.308;2022-10-31T15:03:17;28.53;;;4.50;;
27839;SDS011;15207;42.182;24.308;2022-10-31T15:05:54;38.25;;;5.70;;
27839;SDS011;15207;42.182;24.308;2022-10-31T15:08:33;31.98;;;5.13;;
27839;SDS011;15207;42.182;24.308;2022-10-31T15:11:15;24.10;;;4.65;;
27839;SDS011;15207;42.182;24.308;2022-10-31T15:16:11;22.07;;;4.63;;
27839;SDS011;15207;42.182;24.308;2022-10-31T15:18:44;22.43;;;4.90;;
27839;SDS011;15207;42.182;24.308;2022-10-31T15:21:22;25.05;;;5.00;;
27839;SDS011;15207;42.182;24.308;2022-10-31T15:23:51;24.10;;;4.90;;
27839;SDS011;15207;42.182;24.308;2022-10-31T15:26:19;22.90;;;4.47;;
27839;SDS011;15207;42.182;24.308;2022-10-31T15:31:24;34.00;;;6.00;;
27839;SDS011;15207;42.182;24.308;2022-10-31T15:33:49;31.77;;;6.33;;
27839;SDS011;15207;42.182;24.308;2022-10-31T15:36:20;27.50;;;5.93;;
27839;SDS011;15207;42.182;24.308;2022-10-31T15:38:48;38.00;;;7.00;;
27839;SDS011;15207;42.182;24.308;2022-10-31T15:41:26;39.83;;;7.10;;
27839;SDS011;15207;42.182;24.308;2022-10-31T15:44:07;42.40;;;7.30;;
27839;SDS011;15207;42.182;24.308;2022-10-31T15:46:42;28.73;;;5.55;;
27839;SDS011;15207;42.182;24.308;2022-10-31T15:51:56;29.63;;;5.65;;
27839;SDS011;15207;42.182;24.308;2022-10-31T15:54:25;25.20;;;6.00;;
27839;SDS011;15207;42.182;24.308;2022-10-31T15:56:51;28.65;;;5.55;;
27839;SDS011;15207;42.182;24.308;2022-10-31T15:59:19;39.75;;;6.60;;
27839;SDS011;15207;42.182;24.308;2022-10-31T16:02:01;26.75;;;6.30;;
27839;SDS011;15207;42.182;24.308;2022-10-31T16:04:34;26.05;;;5.20;;
27839;SDS011;15207;42.182;24.308;2022-10-31T16:07:01;26.90;;;5.80;;
27839;SDS011;15207;42.182;24.308;2022-10-31T16:09:37;30.60;;;6.20;;
27839;SDS011;15207;42.182;24.308;2022-10-31T16:14:40;28.30;;;5.65;;
27839;SDS011;15207;42.182;24.308;2022-10-31T16:17:10;32.50;;;6.20;;
27839;SDS011;15207;42.182;24.308;2022-10-31T16:19:44;18.30;;;5.32;;
27839;SDS011;15207;42.182;24.308;2022-10-31T16:22:25;18.45;;;5.65;;
27839;SDS011;15207;42.182;24.308;2022-10-31T16:25:03;27.08;;;7.00;;
27839;SDS011;15207;42.182;24.308;2022-10-31T16:27:35;43.15;;;8.32;;
27839;SDS011;15207;42.182;24.308;2022-10-31T16:30:03;36.80;;;9.30;;
27839;SDS011;15207;42.182;24.308;2022-10-31T16:32:53;25.77;;;8.18;;
27839;SDS011;15207;42.182;24.308;2022-10-31T16:37:49;36.60;;;8.85;;
27839;SDS011;15207;42.182;24.308;2022-10-31T16:40:15;37.40;;;9.65;;
27839;SDS011;15207;42.182;24.308;2022-10-31T16:42:41;47.90;;;9.95;;
27839;SDS011;15207;42.182;24.308;2022-10-31T16:45:13;38.35;;;9.77;;
27839;SDS011;15207;42.182;24.308;2022-10-31T16:50:21;45.95;;;10.95;;
27839;SDS011;15207;42.182;24.308;2022-10-31T16:52:47;38.33;;;10.60;;
27839;SDS011;15207;42.182;24.308;2022-10-31T16:55:14;40.30;;;14.25;;
27839;SDS011;15207;42.182;24.308;2022-10-31T16:57:41;45.50;;;12.60;;
27839;SDS011;15207;42.182;24.308;2022-10-31T17:00:21;33.38;;;12.52;;
27839;SDS011;15207;42.182;24.308;2022-10-31T17:07:42;35.05;;;15.45;;
27839;SDS011;15207;42.182;24.308;2022-10-31T17:10:08;42.60;;;15.40;;
27839;SDS011;15207;42.182;24.308;2022-10-31T17:12:35;38.53;;;14.18;;
27839;SDS011;15207;42.182;24.308;2022-10-31T17:15:03;34.15;;;13.60;;
27839;SDS011;15207;42.182;24.308;2022-10-31T17:17:31;42.50;;;15.00;;
27839;SDS011;15207;42.182;24.308;2022-10-31T17:19:57;44.27;;;13.87;;
27839;SDS011;15207;42.182;24.308;2022-10-31T17:24:48;39.25;;;13.00;;
27839;SDS011;15207;42.182;24.308;2022-10-31T17:27:14;48.60;;;13.25;;
27839;SDS011;15207;42.182;24.308;2022-10-31T17:29:39;45.25;;;12.90;;
27839;SDS011;15207;42.182;24.308;2022-10-31T17:32:05;47.20;;;11.90;;
27839;SDS011;15207;42.182;24.308;2022-10-31T17:34:30;51.20;;;11.45;;
27839;SDS011;15207;42.182;24.308;2022-10-31T17:36:56;42.38;;;11.77;;
27839;SDS011;15207;42.182;24.308;2022-10-31T17:39:22;39.88;;;11.23;;
27839;SDS011;15207;42.182;24.308;2022-10-31T17:41:51;31.75;;;10.40;;
27839;SDS011;15207;42.182;24.308;2022-10-31T17:44:17;31.20;;;10.40;;
27839;SDS011;15207;42.182;24.308;2022-10-31T17:49:10;33.63;;;9.95;;
27839;SDS011;15207;42.182;24.308;2022-10-31T17:51:36;36.03;;;10.48;;
27839;SDS011;15207;42.182;24.308;2022-10-31T17:54:02;30.92;;;11.02;;
27839;SDS011;15207;42.182;24.308;2022-10-31T17:56:30;24.67;;;10.50;;
27839;SDS011;15207;42.182;24.308;2022-10-31T17:58:55;20.45;;;8.60;;
27839;SDS011;15207;42.182;24.308;2022-10-31T18:03:47;21.48;;;8.77;;
27839;SDS011;15207;42.182;24.308;2022-10-31T18:11:07;25.45;;;7.75;;
27839;SDS011;15207;42.182;24.308;2022-10-31T18:13:39;17.55;;;7.55;;
27839;SDS011;15207;42.182;24.308;2022-10-31T18:18:34;25.92;;;8.57;;
27839;SDS011;15207;42.182;24.308;2022-10-31T18:21:00;30.63;;;8.25;;
27839;SDS011;15207;42.182;24.308;2022-10-31T18:23:26;21.95;;;7.80;;
27839;SDS011;15207;42.182;24.308;2022-10-31T18:25:52;20.35;;;8.55;;
27839;SDS011;15207;42.182;24.308;2022-10-31T18:28:19;22.35;;;7.85;;
27839;SDS011;15207;42.182;24.308;2022-10-31T18:30:45;14.05;;;6.95;;
27839;SDS011;15207;42.182;24.308;2022-10-31T18:33:10;18.20;;;6.50;;
27839;SDS011;15207;42.182;24.308;2022-10-31T18:35:36;17.40;;;6.50;;
27839;SDS011;15207;42.182;24.308;2022-10-31T18:38:04;16.05;;;6.25;;
27839;SDS011;15207;42.182;24.308;2022-10-31T18:40:31;17.80;;;6.40;;
27839;SDS011;15207;42.182;24.308;2022-10-31T18:42:59;17.53;;;6.40;;
27839;SDS011;15207;42.182;24.308;2022-10-31T18:47:51;21.10;;;7.00;;
27839;SDS011;15207;42.182;24.308;2022-10-31T18:50:19;25.45;;;8.40;;
27839;SDS011;15207;42.182;24.308;2022-10-31T18:52:46;20.20;;;7.40;;
27839;SDS011;15207;42.182;24.308;2022-10-31T18:55:12;24.90;;;7.77;;
27839;SDS011;15207;42.182;24.308;2022-10-31T18:57:37;17.25;;;7.63;;
27839;SDS011;15207;42.182;24.308;2022-10-31T19:00:04;30.50;;;8.30;;
27839;SDS011;15207;42.182;24.308;2022-10-31T19:02:31;21.10;;;7.80;;
27839;SDS011;15207;42.182;24.308;2022-10-31T19:04:57;25.85;;;7.75;;
27839;SDS011;15207;42.182;24.308;2022-10-31T19:07:23;23.40;;;8.20;;
27839;SDS011;15207;42.182;24.308;2022-10-31T19:09:48;16.73;;;7.38;;
27839;SDS011;15207;42.182;24.308;2022-10-31T19:12:14;26.38;;;8.88;;
27839;SDS011;15207;42.182;24.308;2022-10-31T19:14:40;23.15;;;7.95;;
27839;SDS011;15207;42.182;24.308;2022-10-31T19:17:06;42.65;;;9.55;;
27839;SDS011;15207;42.182;24.308;2022-10-31T19:19:31;48.20;;;10.23;;
27839;SDS011;15207;42.182;24.308;2022-10-31T19:21:57;33.67;;;9.30;;
27839;SDS011;15207;42.182;24.308;2022-10-31T19:24:23;28.90;;;9.50;;
27839;SDS011;15207;42.182;24.308;2022-10-31T19:29:15;30.05;;;9.85;;
27839;SDS011;15207;42.182;24.308;2022-10-31T19:31:40;28.35;;;8.55;;
27839;SDS011;15207;42.182;24.308;2022-10-31T19:34:06;25.20;;;8.80;;